Aviation Digital Data Service (ADDS)

Output produced by METARs form (1914 UTC 30 July 2014)
found at http://aviationweather.gov/adds/metars/
 
KGSO 301728Z 3018/3118 VRB03KT P6SM BKN050